Time;durP1;ratioP1;P1;durP2;ratioP2;P2;SDS_P1;SDS_P2;PMS_P1;PMS_P2;Temp;Humidity;BMP_temperature;BMP_pressure;BME280_temperature;BME280_humidity;BME280_pressure;Samples;Min_cycle;Max_cycle;Signal;HPM_P1;HPM_P2
2022/11/22 00:00:18;;;;;;;15.88;6.53;;;2.60;99.90;;;;;;5150867;28;20126;-89
2022/11/22 00:02:45;;;;;;;18.95;7.07;;;1.90;99.90;;;;;;5125816;28;20032;-88
2022/11/22 00:05:12;;;;;;;16.65;7.72;;;1.80;99.90;;;;;;5113427;28;20036;-89
2022/11/22 00:07:38;;;;;;;15.15;7.28;;;1.90;99.90;;;;;;5113408;28;20043;-89
2022/11/22 00:10:07;;;;;;;17.05;7.13;;;1.90;99.90;;;;;;5080272;28;20044;-90
2022/11/22 00:12:34;;;;;;;15.70;6.78;;;1.90;99.90;;;;;;5096875;28;20524;-90
2022/11/22 00:15:00;;;;;;;16.67;7.20;;;1.80;99.90;;;;;;5113098;28;20504;-90
2022/11/22 00:17:27;;;;;;;19.17;7.90;;;2.00;99.90;;;;;;5112985;28;20043;-90
2022/11/22 00:19:54;;;;;;;19.13;7.15;;;2.10;99.90;;;;;;5079481;28;20036;-90
2022/11/22 00:22:20;;;;;;;15.90;7.30;;;1.90;99.90;;;;;;5080065;28;20439;-88
2022/11/22 00:24:50;;;;;;;20.50;8.32;;;2.30;99.90;;;;;;5128506;28;20663;-90
2022/11/22 00:27:17;;;;;;;16.27;8.13;;;1.90;99.90;;;;;;5113190;28;20463;-90
2022/11/22 00:29:44;;;;;;;17.13;7.60;;;1.90;99.90;;;;;;5113138;28;20438;-90
2022/11/22 00:32:11;;;;;;;19.75;8.55;;;1.90;99.90;;;;;;5129875;28;20040;-90
2022/11/22 00:34:38;;;;;;;18.23;7.82;;;2.50;99.90;;;;;;5096276;28;20044;-89
2022/11/22 00:37:04;;;;;;;20.10;8.10;;;2.80;99.90;;;;;;5099584;28;20061;-90
2022/11/22 00:39:31;;;;;;;19.02;8.02;;;2.40;99.90;;;;;;5099617;28;20101;-90
2022/11/22 00:41:58;;;;;;;18.40;7.63;;;1.90;99.90;;;;;;5082636;28;20384;-90
2022/11/22 00:44:25;;;;;;;21.10;8.05;;;1.90;99.90;;;;;;5099694;28;20777;-90
2022/11/22 00:46:51;;;;;;;21.40;8.88;;;2.10;99.90;;;;;;5099714;28;20168;-90
2022/11/22 00:49:18;;;;;;;20.27;8.70;;;1.90;99.90;;;;;;5116721;28;20035;-90
2022/11/22 00:51:45;;;;;;;20.27;8.48;;;1.90;99.90;;;;;;5083178;28;20039;-88
2022/11/22 00:54:11;;;;;;;22.48;8.48;;;1.90;99.90;;;;;;5099447;28;20031;-89
2022/11/22 00:56:38;;;;;;;21.88;8.65;;;1.90;99.90;;;;;;5095276;28;20123;-89
2022/11/22 00:59:05;;;;;;;22.92;8.77;;;2.60;99.90;;;;;;5099156;28;20073;-89
2022/11/22 01:01:31;;;;;;;25.17;9.50;;;1.90;99.90;;;;;;5132544;28;20063;-90
2022/11/22 01:03:59;;;;;;;28.17;10.23;;;2.00;99.90;;;;;;5099243;28;20092;-90
2022/11/22 01:06:25;;;;;;;23.70;8.07;;;1.90;99.90;;;;;;5098603;28;20044;-90
2022/11/22 01:08:52;;;;;;;18.90;9.02;;;2.80;99.90;;;;;;5114883;28;20035;-90
2022/11/22 01:11:19;;;;;;;20.08;8.57;;;2.00;99.90;;;;;;5115506;28;20036;-90
2022/11/22 01:13:46;;;;;;;20.92;8.63;;;2.60;99.90;;;;;;5115362;28;20036;-91
2022/11/22 01:16:13;;;;;;;23.88;9.00;;;2.00;99.90;;;;;;5114074;28;20050;-90
2022/11/22 01:18:41;;;;;;;22.23;8.45;;;2.00;99.90;;;;;;5132241;28;20043;-90
2022/11/22 01:21:07;;;;;;;23.58;9.77;;;2.00;99.90;;;;;;5115713;28;20515;-90
2022/11/22 01:23:35;;;;;;;20.17;9.70;;;2.00;99.90;;;;;;5132518;28;20040;-89
2022/11/22 01:26:01;;;;;;;22.27;9.70;;;2.60;99.90;;;;;;5124540;28;20404;-90
2022/11/22 01:28:28;;;;;;;19.60;8.82;;;2.00;99.90;;;;;;5115493;28;20035;-89
2022/11/22 01:30:55;;;;;;;21.35;8.77;;;2.10;99.90;;;;;;5098304;28;20036;-91
2022/11/22 01:33:21;;;;;;;18.55;8.60;;;2.00;99.90;;;;;;5115623;28;20135;-90
2022/11/22 01:35:48;;;;;;;23.17;9.50;;;2.10;99.90;;;;;;5098180;28;20035;-88
2022/11/22 01:38:15;;;;;;;19.35;9.02;;;2.10;99.90;;;;;;5149192;28;20040;-90
2022/11/22 01:40:42;;;;;;;20.45;8.70;;;2.00;99.90;;;;;;5131848;28;20047;-90
2022/11/22 01:43:17;;;;;;;21.15;8.77;;;2.20;99.90;;;;;;5114685;28;20123;-90
2022/11/22 01:45:53;;;;;;;22.90;8.57;;;2.10;99.90;;;;;;5131731;28;20035;-90
2022/11/22 01:48:23;;;;;;;18.88;8.20;;;2.10;99.90;;;;;;5131774;28;20038;-92
2022/11/22 01:50:56;;;;;;;30.90;8.75;;;2.10;99.90;;;;;;5131624;28;20062;-90
2022/11/22 01:53:29;;;;;;;21.13;8.60;;;2.70;99.90;;;;;;5148771;28;20423;-90
2022/11/22 01:55:57;;;;;;;19.35;7.88;;;2.10;99.90;;;;;;5131703;28;20130;-90
2022/11/22 01:58:28;;;;;;;21.77;8.07;;;2.10;99.90;;;;;;5131116;28;20040;-90
2022/11/22 02:00:55;;;;;;;18.40;8.20;;;2.10;99.90;;;;;;5131827;28;20032;-90
2022/11/22 02:03:24;;;;;;;18.02;8.10;;;3.00;99.90;;;;;;5098420;28;20048;-90
2022/11/22 02:05:52;;;;;;;16.25;8.23;;;2.10;99.90;;;;;;5131289;28;20044;-91
2022/11/22 02:08:42;;;;;;;18.80;8.02;;;2.10;99.90;;;;;;5095559;28;20050;-90
2022/11/22 02:11:09;;;;;;;20.13;8.80;;;2.20;99.90;;;;;;5097152;28;20090;-90
2022/11/22 02:13:40;;;;;;;16.35;7.60;;;2.20;99.90;;;;;;5111054;28;20085;-90
2022/11/22 02:16:08;;;;;;;16.83;7.95;;;2.30;99.90;;;;;;5130985;28;20047;-90
2022/11/22 02:18:36;;;;;;;17.65;7.85;;;2.20;99.90;;;;;;5081088;28;20036;-90
2022/11/22 02:21:03;;;;;;;19.42;9.05;;;2.20;99.90;;;;;;5081308;28;20449;-90
2022/11/22 02:23:59;;;;;;;19.25;8.80;;;2.20;99.90;;;;;;5125996;28;20601;-89
2022/11/22 02:26:28;;;;;;;19.27;8.48;;;2.20;99.90;;;;;;5131410;28;20448;-90
2022/11/22 02:29:00;;;;;;;17.77;7.65;;;2.20;99.90;;;;;;5107300;28;20051;-91
2022/11/22 02:31:34;;;;;;;14.20;7.07;;;2.20;99.90;;;;;;5094124;28;20044;-90
2022/11/22 02:34:01;;;;;;;17.00;7.38;;;3.10;99.90;;;;;;5111115;28;20039;-90
2022/11/22 02:36:32;;;;;;;16.77;7.32;;;2.80;99.90;;;;;;5110894;28;20091;-91
2022/11/22 02:38:58;;;;;;;16.60;7.72;;;2.90;99.90;;;;;;5110076;28;20507;-90
2022/11/22 02:41:26;;;;;;;17.45;7.55;;;2.40;99.90;;;;;;5077517;28;20040;-90
2022/11/22 02:43:52;;;;;;;15.75;6.97;;;2.90;99.90;;;;;;5093915;28;20036;-90
2022/11/22 02:46:21;;;;;;;21.00;8.20;;;2.40;99.90;;;;;;5061545;28;20039;-90
2022/11/22 02:48:48;;;;;;;16.60;7.60;;;2.20;99.90;;;;;;5111034;28;20048;-90
2022/11/22 02:51:18;;;;;;;18.52;7.82;;;2.20;99.90;;;;;;5077511;28;20130;-89
2022/11/22 02:53:46;;;;;;;19.60;8.63;;;2.20;99.90;;;;;;5093378;28;20043;-90
2022/11/22 02:56:14;;;;;;;18.02;7.93;;;2.20;99.90;;;;;;5093630;28;20137;-90
2022/11/22 02:58:41;;;;;;;16.13;8.25;;;2.60;99.90;;;;;;5095961;28;20058;-90
2022/11/22 03:01:08;;;;;;;18.02;7.15;;;2.50;99.90;;;;;;5076771;28;20080;-90
2022/11/22 03:03:35;;;;;;;20.83;7.70;;;2.30;99.90;;;;;;5076906;28;20841;-89
2022/11/22 03:06:02;;;;;;;17.90;7.93;;;2.30;99.90;;;;;;5059927;28;20142;-89
2022/11/22 03:08:28;;;;;;;15.95;7.05;;;2.70;99.90;;;;;;5060286;28;20036;-90
2022/11/22 03:10:58;;;;;;;17.33;7.65;;;2.30;99.90;;;;;;5076857;28;20123;-85
2022/11/22 03:13:25;;;;;;;13.60;6.40;;;2.30;99.90;;;;;;5093649;28;20044;-90
2022/11/22 03:15:52;;;;;;;16.27;7.75;;;2.40;99.90;;;;;;5077320;28;20135;-89
2022/11/22 03:18:18;;;;;;;18.45;8.25;;;2.80;99.90;;;;;;5093646;28;20134;-89
2022/11/22 03:20:45;;;;;;;17.30;7.38;;;2.60;99.90;;;;;;5077377;28;20044;-89
2022/11/22 03:23:12;;;;;;;22.00;7.80;;;2.30;99.90;;;;;;5110094;28;20036;-88
2022/11/22 03:25:39;;;;;;;18.27;7.78;;;2.90;99.90;;;;;;5077210;28;20043;-89
2022/11/22 03:28:06;;;;;;;14.82;6.65;;;1.80;99.90;;;;;;5093396;28;20113;-90
2022/11/22 03:30:33;;;;;;;15.23;7.25;;;2.40;99.90;;;;;;5093155;28;20040;-89
2022/11/22 03:32:59;;;;;;;17.13;6.78;;;2.70;99.90;;;;;;5080413;28;20046;-89
2022/11/22 03:35:26;;;;;;;16.60;7.38;;;2.40;99.90;;;;;;5097390;28;20051;-90
2022/11/22 03:37:53;;;;;;;14.20;6.60;;;2.40;99.90;;;;;;5097428;28;20127;-88
2022/11/22 03:40:20;;;;;;;15.85;7.28;;;3.10;99.90;;;;;;5080219;28;20154;-89
2022/11/22 03:42:46;;;;;;;15.32;7.05;;;3.50;99.90;;;;;;5064113;28;20078;-89
2022/11/22 03:45:13;;;;;;;15.77;6.65;;;2.40;99.90;;;;;;5063654;28;20032;-89
2022/11/22 03:47:40;;;;;;;14.18;6.57;;;2.40;99.90;;;;;;5080481;28;20126;-88
2022/11/22 03:50:07;;;;;;;14.90;6.85;;;2.40;99.90;;;;;;5063640;28;20047;-88
2022/11/22 03:52:33;;;;;;;14.60;6.43;;;2.50;99.90;;;;;;5063993;28;20119;-88
2022/11/22 03:55:00;;;;;;;18.00;6.78;;;2.50;99.90;;;;;;5063642;28;20048;-87
2022/11/22 03:57:27;;;;;;;15.65;6.90;;;2.30;99.90;;;;;;5063541;28;20069;-87
2022/11/22 03:59:54;;;;;;;14.50;7.03;;;2.50;99.90;;;;;;5096974;28;20044;-87
2022/11/22 04:02:20;;;;;;;14.95;6.38;;;2.50;99.90;;;;;;5062911;28;20044;-87
2022/11/22 04:04:47;;;;;;;16.30;6.07;;;2.50;99.90;;;;;;5079800;28;20032;-87
2022/11/22 04:07:14;;;;;;;13.25;6.78;;;2.50;99.90;;;;;;5079506;28;20127;-88
2022/11/22 04:09:40;;;;;;;18.38;7.82;;;2.50;99.90;;;;;;5096568;28;20399;-88
2022/11/22 04:12:07;;;;;;;14.57;7.07;;;2.50;99.90;;;;;;5079531;28;20036;-87
2022/11/22 04:17:39;;;;;;;14.95;6.35;;;2.50;99.90;;;;;;5098562;28;20044;-88
2022/11/22 04:23:17;;;;;;;14.25;6.63;;;2.90;99.90;;;;;;5112458;28;20055;-88
2022/11/22 04:25:47;;;;;;;12.35;6.03;;;2.50;99.90;;;;;;5096348;28;20039;-87
2022/11/22 04:28:16;;;;;;;15.80;6.88;;;2.70;99.90;;;;;;5095733;28;20135;-87
2022/11/22 04:33:28;;;;;;;15.73;7.13;;;2.60;99.90;;;;;;5098148;28;20411;-87
2022/11/22 04:35:55;;;;;;;13.77;6.28;;;2.60;99.90;;;;;;5095711;28;20040;-87
2022/11/22 04:38:22;;;;;;;12.65;6.20;;;2.60;99.90;;;;;;5112187;28;20043;-87
2022/11/22 04:40:49;;;;;;;12.93;6.32;;;2.70;99.90;;;;;;5095915;28;20555;-87
2022/11/22 04:46:08;;;;;;;15.90;6.40;;;2.70;99.90;;;;;;5112425;28;20488;-84
2022/11/22 04:48:35;;;;;;;14.07;6.50;;;2.80;99.90;;;;;;5095704;28;20105;-87
2022/11/22 04:53:48;;;;;;;15.02;6.03;;;2.70;99.90;;;;;;5112281;28;20134;-88
2022/11/22 04:56:16;;;;;;;15.02;6.30;;;2.70;99.90;;;;;;5112552;28;20507;-85
2022/11/22 04:58:42;;;;;;;15.63;6.60;;;3.50;99.90;;;;;;5078855;28;20046;-88
2022/11/22 05:01:10;;;;;;;13.25;6.43;;;2.70;99.90;;;;;;5095206;28;20044;-87
2022/11/22 05:03:36;;;;;;;13.02;6.25;;;3.10;99.90;;;;;;5095241;28;20125;-88
2022/11/22 05:06:04;;;;;;;12.90;5.88;;;2.80;99.90;;;;;;5095035;28;20510;-87
2022/11/22 05:08:31;;;;;;;12.48;6.10;;;2.80;99.90;;;;;;5094862;28;20051;-87
2022/11/22 05:10:58;;;;;;;14.18;6.90;;;2.80;99.90;;;;;;5095246;28;20039;-86
2022/11/22 05:13:36;;;;;;;12.27;5.95;;;2.80;99.90;;;;;;5094941;28;20047;-87
2022/11/22 05:16:05;;;;;;;14.05;6.43;;;2.90;99.90;;;;;;5078844;28;20044;-87
2022/11/22 05:18:32;;;;;;;13.15;5.72;;;2.90;99.90;;;;;;5095208;28;20043;-87
2022/11/22 05:21:04;;;;;;;16.70;6.95;;;2.90;99.90;;;;;;5078613;28;20074;-87
2022/11/22 05:26:17;;;;;;;16.95;6.65;;;2.90;99.90;;;;;;5097306;28;20101;-87
2022/11/22 05:28:43;;;;;;;11.55;6.05;;;2.90;99.90;;;;;;5078336;28;20051;-88
2022/11/22 05:31:16;;;;;;;12.82;6.63;;;2.90;99.90;;;;;;5094643;28;20040;-87
2022/11/22 05:33:44;;;;;;;14.05;6.78;;;2.90;99.90;;;;;;5094918;28;20060;-87
2022/11/22 05:36:12;;;;;;;14.48;6.57;;;2.90;99.90;;;;;;5094796;28;20081;-87
2022/11/22 05:38:39;;;;;;;14.23;5.95;;;2.90;99.90;;;;;;5078053;28;20040;-87
2022/11/22 05:41:08;;;;;;;15.88;6.78;;;2.90;99.90;;;;;;5094633;28;20043;-87
2022/11/22 05:43:35;;;;;;;15.90;6.65;;;3.00;99.90;;;;;;5094596;28;20078;-87
2022/11/22 05:46:14;;;;;;;14.70;5.90;;;3.00;99.90;;;;;;5094617;28;20422;-87
2022/11/22 05:48:42;;;;;;;14.27;6.55;;;3.00;99.90;;;;;;5094580;28;20047;-87
2022/11/22 05:51:15;;;;;;;13.07;6.47;;;3.00;99.90;;;;;;5094517;28;20044;-87
2022/11/22 05:53:42;;;;;;;13.63;6.32;;;3.00;99.90;;;;;;5093401;28;20047;-87
2022/11/22 05:56:11;;;;;;;14.25;6.78;;;3.00;99.90;;;;;;5094379;28;20035;-87
2022/11/22 05:58:38;;;;;;;13.20;6.50;;;3.00;99.90;;;;;;5094200;28;20086;-87
2022/11/22 06:01:07;;;;;;;11.52;6.13;;;3.00;99.90;;;;;;5093975;28;20082;-87
2022/11/22 06:03:35;;;;;;;12.50;6.03;;;3.00;99.90;;;;;;5094112;28;20093;-87
2022/11/22 06:06:03;;;;;;;14.25;6.57;;;3.00;99.90;;;;;;5110714;28;20400;-87
2022/11/22 06:08:32;;;;;;;13.60;6.45;;;3.00;99.90;;;;;;5077102;28;20078;-88
2022/11/22 06:11:13;;;;;;;14.82;6.50;;;3.00;99.90;;;;;;5096198;28;20024;-87
2022/11/22 06:13:42;;;;;;;15.90;6.30;;;3.10;99.90;;;;;;5094021;28;20044;-87
2022/11/22 06:16:10;;;;;;;17.67;6.43;;;3.40;99.90;;;;;;5094435;28;20044;-87
2022/11/22 06:18:37;;;;;;;11.50;5.55;;;3.10;99.90;;;;;;5110595;28;20044;-88
2022/11/22 06:21:07;;;;;;;14.32;5.68;;;3.20;99.90;;;;;;5060879;28;20040;-88
2022/11/22 06:23:33;;;;;;;12.40;6.57;;;3.10;99.90;;;;;;5110304;28;20097;-88
2022/11/22 06:26:05;;;;;;;14.57;6.30;;;3.10;99.90;;;;;;5077318;28;20032;-87
2022/11/22 06:28:34;;;;;;;12.88;6.10;;;3.20;99.90;;;;;;5093516;28;20090;-88
2022/11/22 06:31:05;;;;;;;17.90;6.45;;;3.50;99.90;;;;;;5077739;28;20043;-85
2022/11/22 06:33:33;;;;;;;13.57;6.32;;;3.20;99.90;;;;;;5093638;28;20507;-87
2022/11/22 06:36:08;;;;;;;13.00;6.00;;;3.20;99.90;;;;;;5077081;28;20097;-88
2022/11/22 06:38:35;;;;;;;14.68;6.90;;;3.20;99.90;;;;;;5093338;28;20040;-87
2022/11/22 06:41:07;;;;;;;16.40;6.50;;;3.30;99.90;;;;;;5093385;28;20083;-87
2022/11/22 06:43:35;;;;;;;16.67;6.55;;;3.20;99.90;;;;;;5093881;28;20048;-88
2022/11/22 06:46:04;;;;;;;13.75;6.57;;;3.20;99.90;;;;;;5077497;28;20090;-87
2022/11/22 06:48:32;;;;;;;16.52;6.53;;;3.30;99.90;;;;;;5073242;28;20115;-87
2022/11/22 06:51:05;;;;;;;20.52;6.88;;;3.30;99.90;;;;;;5073589;28;20048;-87
2022/11/22 06:53:33;;;;;;;13.52;6.47;;;3.30;99.90;;;;;;5089891;28;20075;-88
2022/11/22 06:56:00;;;;;;;16.85;6.72;;;3.30;99.90;;;;;;5040803;28;20040;-87
2022/11/22 06:58:27;;;;;;;16.73;6.53;;;3.30;99.90;;;;;;5073224;28;20079;-88
2022/11/22 07:01:03;;;;;;;15.43;6.90;;;3.40;99.90;;;;;;5076624;28;20046;-88
2022/11/22 07:03:30;;;;;;;14.43;7.15;;;3.30;99.90;;;;;;5092601;28;20127;-87
2022/11/22 07:05:57;;;;;;;15.13;7.43;;;3.30;99.90;;;;;;5111145;28;20122;-88
2022/11/22 07:08:23;;;;;;;18.08;7.15;;;3.90;99.90;;;;;;5063484;28;20036;-88
2022/11/22 07:10:50;;;;;;;15.38;6.80;;;3.30;99.90;;;;;;5079989;28;20043;-87
2022/11/22 07:13:17;;;;;;;13.32;6.18;;;3.40;99.90;;;;;;5080331;28;20484;-88
2022/11/22 07:15:53;;;;;;;13.25;6.43;;;3.60;99.90;;;;;;5096794;28;20051;-91
2022/11/22 07:18:19;;;;;;;;;;;3.70;99.90;;;;;;5097755;28;20552;-89
2022/11/22 07:20:46;;;;;;;15.35;6.00;;;3.50;99.90;;;;;;5096656;28;20106;-89
2022/11/22 07:23:14;;;;;;;15.38;7.30;;;3.50;99.90;;;;;;5077938;28;20048;-90
2022/11/22 07:25:47;;;;;;;15.77;6.10;;;3.40;99.90;;;;;;5087631;28;20036;-88
2022/11/22 07:28:15;;;;;;;15.23;6.40;;;3.40;99.90;;;;;;5063739;28;20056;-90
2022/11/22 07:30:42;;;;;;;14.95;7.18;;;4.10;99.90;;;;;;5053092;28;20044;-90
2022/11/22 07:33:08;;;;;;;16.20;6.25;;;3.50;99.90;;;;;;5072169;28;20051;-91
2022/11/22 07:35:36;;;;;;;12.70;5.97;;;3.50;99.90;;;;;;5074601;28;20407;-89
2022/11/22 07:38:03;;;;;;;17.80;6.45;;;3.50;99.90;;;;;;5072115;28;20141;-91
2022/11/22 07:40:29;;;;;;;14.05;6.60;;;3.50;99.90;;;;;;5067406;28;20067;-90
2022/11/22 07:42:56;;;;;;;14.90;6.50;;;3.50;99.90;;;;;;5082364;28;20052;-89
2022/11/22 07:45:23;;;;;;;16.15;7.25;;;3.60;99.90;;;;;;5089595;28;20039;-90
2022/11/22 07:47:50;;;;;;;13.73;6.43;;;3.60;99.90;;;;;;5063731;28;20051;-89
2022/11/22 07:50:16;;;;;;;15.15;6.95;;;3.60;99.90;;;;;;5101225;28;20036;-91
2022/11/22 07:52:43;;;;;;;17.48;6.22;;;3.60;99.90;;;;;;5076556;28;20046;-88
2022/11/22 07:55:10;;;;;;;15.68;6.50;;;3.60;99.90;;;;;;5072689;28;20039;-89
2022/11/22 07:57:37;;;;;;;18.35;7.82;;;3.70;99.90;;;;;;5079417;28;20051;-89
2022/11/22 08:00:04;;;;;;;20.40;7.05;;;3.70;99.90;;;;;;5094270;28;20552;-89
2022/11/22 08:02:31;;;;;;;14.23;7.55;;;3.70;99.90;;;;;;5095804;28;20043;-89
2022/11/22 08:04:58;;;;;;;14.65;7.05;;;3.80;99.90;;;;;;5063528;28;20039;-86
2022/11/22 08:07:24;;;;;;;20.67;7.05;;;4.00;99.90;;;;;;5079870;28;20024;-89
2022/11/22 08:09:51;;;;;;;16.63;7.15;;;3.80;99.90;;;;;;5062929;28;20043;-88
2022/11/22 08:12:18;;;;;;;13.77;6.63;;;3.90;99.90;;;;;;5078219;28;20040;-88
2022/11/22 08:14:45;;;;;;;17.27;6.90;;;4.10;99.90;;;;;;5091949;28;20448;-88
2022/11/22 08:17:11;;;;;;;13.70;6.80;;;3.90;99.90;;;;;;5065285;28;20068;-88
2022/11/22 08:19:38;;;;;;;16.02;6.57;;;3.90;99.90;;;;;;5086775;28;20113;-87
2022/11/22 08:22:05;;;;;;;15.15;6.85;;;4.00;99.90;;;;;;5082417;28;20520;-86
2022/11/22 08:24:32;;;;;;;19.40;6.38;;;4.20;99.90;;;;;;5062622;28;20040;-86
2022/11/22 08:26:59;;;;;;;14.77;7.13;;;4.00;99.90;;;;;;5079238;28;20043;-86
2022/11/22 08:29:27;;;;;;;15.23;6.07;;;4.10;99.90;;;;;;5099002;28;20047;-86
2022/11/22 08:31:54;;;;;;;12.55;6.20;;;4.20;99.90;;;;;;5065065;28;20474;-87
2022/11/22 08:34:21;;;;;;;16.35;6.50;;;4.60;99.90;;;;;;5082369;28;20044;-87
2022/11/22 08:36:48;;;;;;;14.18;6.18;;;4.30;99.90;;;;;;5078607;28;20040;-86
2022/11/22 08:39:14;;;;;;;14.63;5.85;;;4.30;99.90;;;;;;5106759;28;20083;-85
2022/11/22 08:41:41;;;;;;;15.45;5.47;;;4.30;99.90;;;;;;5044347;28;20485;-84
2022/11/22 08:44:08;;;;;;;11.25;4.93;;;4.40;99.90;;;;;;5093903;28;20490;-85
2022/11/22 08:46:34;;;;;;;14.95;6.47;;;4.40;99.90;;;;;;5061541;28;20515;-86
2022/11/22 08:49:02;;;;;;;16.40;6.07;;;4.70;99.90;;;;;;5095168;28;20032;-87
2022/11/22 08:51:29;;;;;;;17.70;5.20;;;4.50;99.90;;;;;;5063125;28;20039;-87
2022/11/22 08:53:56;;;;;;;13.07;5.25;;;4.60;99.90;;;;;;5062288;28;20040;-87
2022/11/22 08:56:22;;;;;;;13.75;5.35;;;4.70;99.90;;;;;;5063271;28;20161;-88
2022/11/22 08:58:49;;;;;;;16.77;5.43;;;5.20;99.90;;;;;;5078589;28;20036;-87
2022/11/22 09:01:17;;;;;;;13.45;4.93;;;4.80;99.90;;;;;;5079808;28;20373;-87
2022/11/22 09:03:44;;;;;;;12.65;4.68;;;4.90;99.90;;;;;;5094469;28;20116;-86
2022/11/22 09:06:14;;;;;;;13.23;4.57;;;5.00;99.90;;;;;;5096122;28;20548;-87
2022/11/22 09:08:40;;;;;;;10.75;5.00;;;5.00;99.90;;;;;;5104219;28;20039;-87
2022/11/22 09:11:13;;;;;;;9.48;4.25;;;5.00;99.90;;;;;;5070051;28;20055;-87
2022/11/22 09:13:40;;;;;;;12.48;4.53;;;5.10;99.90;;;;;;5078741;28;20036;-87
2022/11/22 09:16:13;;;;;;;13.25;4.28;;;5.10;99.90;;;;;;5079233;28;20043;-88
2022/11/22 09:18:40;;;;;;;10.82;3.63;;;5.20;99.90;;;;;;5096231;28;20036;-88
2022/11/22 09:21:14;;;;;;;13.32;4.50;;;5.40;99.90;;;;;;5079624;28;20136;-88
2022/11/22 09:23:44;;;;;;;12.82;3.20;;;6.00;99.90;;;;;;5113345;28;20040;-87
2022/11/22 09:26:13;;;;;;;10.90;3.10;;;5.40;99.90;;;;;;5096287;28;20056;-89
2022/11/22 09:28:40;;;;;;;9.20;3.58;;;5.40;99.90;;;;;;5095616;28;20409;-88
2022/11/22 09:31:10;;;;;;;11.90;3.58;;;5.40;99.90;;;;;;5129876;28;20051;-90
2022/11/22 09:33:38;;;;;;;10.73;3.35;;;6.30;99.90;;;;;;5113019;28;20048;-88
2022/11/22 09:36:14;;;;;;;11.73;3.70;;;5.50;99.90;;;;;;5112419;28;20480;-88
2022/11/22 09:38:41;;;;;;;7.07;2.42;;;5.60;99.90;;;;;;5086622;28;20048;-87
2022/11/22 09:41:32;;;;;;;11.43;2.97;;;6.20;99.90;;;;;;5053478;28;20052;-88
2022/11/22 09:44:04;;;;;;;9.43;2.38;;;5.70;99.90;;;;;;5092545;28;20047;-88
2022/11/22 09:46:50;;;;;;;12.73;2.60;;;6.50;99.90;;;;;;5111590;28;20040;-85
2022/11/22 09:49:35;;;;;;;10.05;2.75;;;6.30;99.90;;;;;;5097009;28;20039;-89
2022/11/22 09:52:06;;;;;;;16.08;2.58;;;5.80;99.90;;;;;;5096144;28;20045;-88
2022/11/22 09:55:11;;;;;;;8.82;1.90;;;6.40;99.90;;;;;;5096350;28;20040;-88
2022/11/22 09:57:48;;;;;;;7.22;2.05;;;5.90;99.90;;;;;;5061518;28;20031;-88
2022/11/22 10:00:19;;;;;;;6.07;2.05;;;5.90;99.90;;;;;;5115848;28;20070;-90
2022/11/22 10:03:13;;;;;;;6.88;2.17;;;6.00;99.90;;;;;;5117335;28;20244;-89
2022/11/22 10:05:52;;;;;;;10.75;2.60;;;6.00;99.90;;;;;;5053489;28;20050;-86
2022/11/22 10:08:37;;;;;;;12.00;2.67;;;6.00;99.90;;;;;;5094907;28;20071;-87
2022/11/22 10:11:43;;;;;;;10.75;3.08;;;6.10;99.90;;;;;;5094551;28;20038;-86
2022/11/22 10:14:33;;;;;;;11.93;2.20;;;6.10;99.90;;;;;;5085837;28;20036;-86
2022/11/22 10:17:23;;;;;;;6.80;2.13;;;6.10;99.90;;;;;;5093809;28;20039;-86
2022/11/22 10:20:03;;;;;;;10.38;2.00;;;6.10;99.90;;;;;;5107503;28;20039;-89
2022/11/22 10:22:31;;;;;;;11.43;2.10;;;6.10;99.90;;;;;;5104374;28;20118;-88
2022/11/22 10:24:59;;;;;;;6.35;1.85;;;6.10;99.90;;;;;;5092463;28;20036;-88
2022/11/22 10:27:31;;;;;;;11.52;1.67;;;6.10;99.90;;;;;;5062562;28;20032;-89
2022/11/22 10:30:15;;;;;;;6.55;2.28;;;6.10;99.90;;;;;;5095396;28;20099;-88
2022/11/22 10:33:06;;;;;;;7.43;1.75;;;6.10;99.90;;;;;;5096192;28;20044;-88
2022/11/22 10:35:57;;;;;;;6.32;1.73;;;6.10;99.90;;;;;;5095631;28;20506;-87
2022/11/22 10:38:43;;;;;;;7.15;1.80;;;6.10;99.90;;;;;;5115294;28;20048;-88
2022/11/22 10:41:31;;;;;;;8.55;1.83;;;6.10;99.90;;;;;;5094933;28;20043;-88
2022/11/22 10:44:29;;;;;;;14.77;2.50;;;6.10;99.90;;;;;;5092006;28;20054;-89
2022/11/22 10:46:58;;;;;;;12.73;2.33;;;6.20;99.90;;;;;;5096112;28;20052;-88
2022/11/22 10:49:34;;;;;;;9.40;2.20;;;6.20;99.90;;;;;;5096523;28;20047;-90
2022/11/22 10:52:31;;;;;;;4.55;1.75;;;6.20;99.90;;;;;;5095812;28;20055;-87
2022/11/22 10:55:12;;;;;;;4.32;1.38;;;6.30;99.90;;;;;;5093710;28;20028;-86
2022/11/22 10:58:16;;;;;;;6.22;1.60;;;6.30;99.90;;;;;;5080365;28;20044;-86
2022/11/22 11:00:47;;;;;;;6.75;1.70;;;6.30;99.90;;;;;;5095875;28;20094;-88
2022/11/22 11:03:33;;;;;;;6.18;1.42;;;6.80;99.90;;;;;;5096559;28;20040;-88
2022/11/22 11:06:14;;;;;;;7.53;1.30;;;6.40;99.90;;;;;;5088284;28;20411;-88
2022/11/22 11:08:44;;;;;;;5.40;1.23;;;6.40;99.90;;;;;;5096505;28;20472;-86
2022/11/22 11:11:14;;;;;;;7.25;1.40;;;6.40;99.90;;;;;;5101170;28;20127;-88
2022/11/22 11:13:51;;;;;;;12.52;1.70;;;6.40;99.90;;;;;;5083654;28;20079;-87
2022/11/22 11:16:38;;;;;;;5.72;1.33;;;6.40;99.90;;;;;;5084891;28;20483;-88
2022/11/22 11:19:20;;;;;;;6.43;1.35;;;6.40;99.90;;;;;;5077322;28;20052;-87
2022/11/22 11:22:07;;;;;;;6.20;1.20;;;6.50;99.90;;;;;;5090519;28;20133;-87
2022/11/22 11:24:37;;;;;;;5.80;1.45;;;6.50;99.90;;;;;;5079546;28;20075;-87
2022/11/22 11:27:04;;;;;;;6.40;1.83;;;6.60;99.90;;;;;;5092120;28;20036;-87
2022/11/22 11:29:38;;;;;;;4.53;0.98;;;6.60;99.90;;;;;;5071679;28;20047;-87
2022/11/22 11:32:13;;;;;;;5.20;1.00;;;6.60;99.90;;;;;;5092564;28;20056;-89
2022/11/22 11:34:56;;;;;;;3.65;1.20;;;6.60;99.90;;;;;;5075312;28;20128;-88
2022/11/22 11:37:35;;;;;;;5.32;1.08;;;6.70;99.90;;;;;;5092848;28;20481;-88
2022/11/22 11:40:03;;;;;;;3.17;0.90;;;6.70;99.90;;;;;;5073369;28;20131;-90
2022/11/22 11:42:32;;;;;;;5.10;1.02;;;6.70;99.90;;;;;;5075064;28;20147;-89
2022/11/22 11:45:24;;;;;;;3.63;1.00;;;6.70;99.90;;;;;;5075006;28;20047;-85
2022/11/22 11:47:51;;;;;;;7.57;1.35;;;6.80;99.90;;;;;;5064407;28;20037;-88
2022/11/22 11:50:23;;;;;;;6.15;1.27;;;6.80;99.90;;;;;;5042217;28;20036;-87
2022/11/22 11:53:01;;;;;;;6.10;1.10;;;6.80;99.90;;;;;;5061479;28;20033;-88
2022/11/22 11:55:35;;;;;;;3.67;1.00;;;6.80;99.90;;;;;;5079001;28;20033;-88
2022/11/22 11:58:18;;;;;;;6.10;1.30;;;6.80;99.90;;;;;;5060610;28;20416;-88
2022/11/22 12:00:45;;;;;;;4.47;1.08;;;6.90;99.90;;;;;;5077636;28;20167;-88
2022/11/22 12:03:17;;;;;;;3.80;1.35;;;6.80;99.90;;;;;;5044464;28;20048;-88
2022/11/22 12:05:44;;;;;;;6.30;1.20;;;6.80;99.90;;;;;;5077650;28;20047;-88
2022/11/22 12:08:30;;;;;;;5.93;1.40;;;7.20;99.90;;;;;;5044362;28;20119;-87
2022/11/22 12:11:13;;;;;;;4.35;1.10;;;6.80;99.90;;;;;;5060999;28;20110;-89
2022/11/22 12:13:52;;;;;;;9.02;1.33;;;6.90;99.90;;;;;;5078955;28;20036;-89
2022/11/22 12:16:31;;;;;;;8.52;1.67;;;6.90;99.90;;;;;;5097461;28;20403;-88
2022/11/22 12:19:29;;;;;;;3.22;0.82;;;6.90;99.90;;;;;;5097201;28;20040;-87
2022/11/22 12:22:01;;;;;;;6.75;0.93;;;7.00;99.90;;;;;;5050541;28;20084;-88
2022/11/22 12:24:38;;;;;;;4.10;1.05;;;7.00;99.90;;;;;;5056667;28;20785;-88
2022/11/22 12:27:07;;;;;;;5.75;1.52;;;7.00;99.90;;;;;;5073612;28;20060;-86
2022/11/22 12:29:38;;;;;;;4.30;1.05;;;7.30;99.90;;;;;;5058504;28;20497;-88
2022/11/22 12:32:06;;;;;;;6.72;1.23;;;7.00;99.90;;;;;;5056964;28;20087;-84
2022/11/22 12:34:45;;;;;;;3.78;1.45;;;7.10;99.90;;;;;;5063749;28;20041;-88
2022/11/22 12:37:28;;;;;;;4.00;0.93;;;7.10;99.90;;;;;;5083990;28;20074;-88
2022/11/22 12:40:04;;;;;;;6.05;1.10;;;7.00;99.90;;;;;;5083295;28;20076;-88
2022/11/22 12:42:38;;;;;;;7.97;1.52;;;7.10;99.90;;;;;;5068270;28;20119;-88
2022/11/22 12:45:26;;;;;;;5.78;1.35;;;7.00;99.90;;;;;;5081514;28;20058;-88
2022/11/22 12:47:56;;;;;;;5.50;1.38;;;7.00;99.90;;;;;;5076856;28;20036;-88
2022/11/22 12:50:32;;;;;;;4.50;1.13;;;7.00;99.90;;;;;;5076127;28;20036;-89
2022/11/22 12:53:13;;;;;;;6.90;1.20;;;7.00;99.90;;;;;;5076197;28;20041;-89
2022/11/22 12:55:49;;;;;;;7.18;1.65;;;7.00;99.90;;;;;;5076563;28;20050;-89
2022/11/22 12:58:29;;;;;;;8.50;1.23;;;7.00;99.90;;;;;;5076499;28;20040;-92
2022/11/22 13:01:12;;;;;;;3.13;1.30;;;7.00;99.90;;;;;;5075335;28;20033;-87
2022/11/22 13:04:02;;;;;;;5.50;1.20;;;7.20;99.90;;;;;;5074114;28;20510;-88
2022/11/22 13:06:46;;;;;;;5.80;1.30;;;7.00;99.90;;;;;;5056535;28;20128;-89
2022/11/22 13:09:30;;;;;;;3.88;1.20;;;7.00;99.90;;;;;;5072753;28;20033;-89
2022/11/22 13:12:02;;;;;;;2.72;1.08;;;7.00;99.90;;;;;;5072662;28;20142;-88
2022/11/22 13:14:53;;;;;;;6.55;1.50;;;7.00;99.90;;;;;;5082674;28;20123;-87
2022/11/22 13:17:26;;;;;;;8.30;1.40;;;6.90;99.90;;;;;;5075514;28;20852;-87
2022/11/22 13:19:54;;;;;;;4.13;1.05;;;6.90;99.90;;;;;;5074691;28;20474;-85
2022/11/22 13:22:31;;;;;;;8.38;1.30;;;6.90;99.90;;;;;;5074099;28;20044;-85
2022/11/22 13:25:12;;;;;;;6.35;1.30;;;6.90;99.90;;;;;;5073994;28;20045;-85
2022/11/22 13:27:47;;;;;;;7.43;1.30;;;6.90;99.90;;;;;;5074071;28;20063;-84